createdAt,value
2023-11-26T00:04:05.281Z,39.5
2023-11-26T00:11:37.724Z,39.4
2023-11-26T00:19:10.162Z,39.5
2023-11-26T00:26:42.724Z,39.5
2023-11-26T00:34:15.167Z,39.5
2023-11-26T00:41:47.585Z,39.4
2023-11-26T00:49:20.003Z,39.5
2023-11-26T00:56:52.433Z,39.6
2023-11-26T01:04:24.856Z,39.7
2023-11-26T01:11:57.348Z,39.6
2023-11-26T01:19:29.834Z,39.5
2023-11-26T01:27:02.257Z,39.4
2023-11-26T01:34:34.692Z,39.5
2023-11-26T01:42:07.114Z,39.3
2023-11-26T01:49:39.593Z,39.4
2023-11-26T01:57:12.054Z,39.5
2023-11-26T02:04:44.508Z,39.4
2023-11-26T02:12:16.944Z,39.3
2023-11-26T02:19:49.505Z,39.4
2023-11-26T02:27:21.998Z,39.3
2023-11-26T02:34:54.455Z,39.4
2023-11-26T02:42:26.900Z,39.4
2023-11-26T02:49:59.362Z,39.2
2023-11-26T02:57:31.822Z,39.5
2023-11-26T03:05:04.322Z,39.4
2023-11-26T03:12:36.750Z,39.4
2023-11-26T03:20:09.235Z,39.5
2023-11-26T03:27:41.700Z,39.6
2023-11-26T03:35:14.199Z,39.7
2023-11-26T03:42:46.663Z,39.8
2023-11-26T03:50:19.151Z,39.9
2023-11-26T03:57:51.616Z,39.9
2023-11-26T04:05:24.068Z,40.0
2023-11-26T04:12:56.526Z,40.0
2023-11-26T04:20:29.015Z,40.0
2023-11-26T04:28:01.445Z,40.1
2023-11-26T04:35:33.959Z,40.1
2023-11-26T04:43:06.930Z,40.2
2023-11-26T04:50:39.388Z,40.3
2023-11-26T04:58:11.813Z,40.4
2023-11-26T05:05:44.270Z,40.4
2023-11-26T05:13:16.715Z,40.4
2023-11-26T05:20:49.155Z,40.4
2023-11-26T05:28:21.608Z,40.4
2023-11-26T05:35:54.062Z,40.4
2023-11-26T05:43:26.485Z,40.5
2023-11-26T05:50:58.924Z,40.5
2023-11-26T05:58:31.370Z,40.6
2023-11-26T06:06:03.804Z,40.8
2023-11-26T06:13:36.248Z,40.8
2023-11-26T06:21:08.717Z,40.9
2023-11-26T06:22:11.130Z,40.9
2023-11-26T06:22:58.587Z,40.9
2023-11-26T06:30:31.064Z,40.9
2023-11-26T06:38:03.536Z,40.1
2023-11-26T06:45:36.058Z,40.6
2023-11-26T06:53:08.544Z,40.8
2023-11-26T07:00:41.021Z,40.9
2023-11-26T07:08:13.498Z,41.0
2023-11-26T07:15:46.072Z,41.1
2023-11-26T07:23:18.549Z,41.1
2023-11-26T07:30:50.997Z,41.2
2023-11-26T07:38:23.462Z,41.1
2023-11-26T07:45:56.001Z,41.1
2023-11-26T07:53:28.467Z,41.1
2023-11-26T08:01:00.897Z,41.2
2023-11-26T08:02:53.297Z,41.3
2023-11-26T08:03:40.937Z,41.2
2023-11-26T08:08:43.490Z,41.2
2023-11-26T08:09:30.935Z,41.2
2023-11-26T08:17:03.370Z,41.3
2023-11-26T08:24:35.838Z,40.5
2023-11-26T08:32:09.564Z,40.9
2023-11-26T08:39:42.138Z,41.0
2023-11-26T08:47:14.558Z,41.1
2023-11-26T08:54:47.021Z,41.1
2023-11-26T09:02:19.569Z,41.1
2023-11-26T09:09:52.059Z,41.2
2023-11-26T09:14:04.526Z,41.2
2023-11-26T09:21:37.022Z,41.7
2023-11-26T09:29:11.693Z,41.2
2023-11-26T09:36:46.024Z,41.2
2023-11-26T09:44:18.448Z,41.3
2023-11-26T09:51:50.908Z,41.4
2023-11-26T09:59:23.386Z,41.5
2023-11-26T10:06:55.989Z,41.5
2023-11-26T10:14:28.482Z,41.6
2023-11-26T10:22:00.917Z,41.6
2023-11-26T10:29:33.348Z,41.6
2023-11-26T10:37:05.861Z,41.7
2023-11-26T10:44:38.302Z,41.7
2023-11-26T10:52:10.759Z,41.7
2023-11-26T10:59:43.227Z,41.8
2023-11-26T11:07:15.715Z,41.7
2023-11-26T11:14:48.212Z,41.7
2023-11-26T11:22:20.690Z,41.7
2023-11-26T11:29:53.130Z,41.7
2023-11-26T11:37:25.592Z,41.7
2023-11-26T11:44:58.016Z,41.7
2023-11-26T11:52:30.442Z,41.8
2023-11-26T12:00:02.874Z,41.7
2023-11-26T12:07:35.389Z,41.7
2023-11-26T12:15:07.886Z,41.7
2023-11-26T12:22:40.300Z,41.7
2023-11-26T12:30:12.758Z,41.7
2023-11-26T12:37:45.201Z,41.6
2023-11-26T12:45:17.922Z,41.6
2023-11-26T12:52:50.416Z,41.6
2023-11-26T13:00:22.886Z,41.6
2023-11-26T13:07:55.325Z,41.6
2023-11-26T13:15:27.794Z,41.6
2023-11-26T13:23:03.332Z,41.6
2023-11-26T13:30:36.490Z,41.6
2023-11-26T13:38:08.920Z,41.7
2023-11-26T13:45:41.524Z,41.7
2023-11-26T13:53:14.067Z,41.8
2023-11-26T14:00:46.557Z,41.8
2023-11-26T14:08:19.033Z,41.7
2023-11-26T14:15:51.510Z,41.7
2023-11-26T14:23:23.994Z,41.7
2023-11-26T14:30:57.892Z,41.7
2023-11-26T14:38:30.422Z,41.7
2023-11-26T14:46:02.880Z,41.8
2023-11-26T14:53:35.376Z,41.8
2023-11-26T15:01:07.928Z,41.8
2023-11-26T15:08:40.738Z,41.8
2023-11-26T15:16:13.258Z,41.8
2023-11-26T15:23:45.683Z,41.8
2023-11-26T15:31:18.186Z,41.9
2023-11-26T15:38:50.674Z,41.9
2023-11-26T15:46:23.184Z,41.8
2023-11-26T15:54:02.549Z,41.8
2023-11-26T16:01:36.181Z,41.9
2023-11-26T16:09:08.734Z,41.9
2023-11-26T16:16:41.183Z,41.8
2023-11-26T16:24:14.796Z,41.8
2023-11-26T16:31:48.790Z,41.8
2023-11-26T16:39:21.256Z,41.9
2023-11-26T16:46:53.701Z,41.8
2023-11-26T16:54:26.184Z,41.8
2023-11-26T17:01:58.776Z,41.8
2023-11-26T17:10:32.677Z,42.5
2023-11-26T17:11:20.040Z,42.1
2023-11-26T17:12:07.358Z,42.1
2023-11-26T17:12:54.707Z,42.1
2023-11-26T17:13:42.167Z,42.1
2023-11-26T17:14:29.469Z,42.0
2023-11-26T17:15:16.793Z,42.1
2023-11-26T17:16:04.357Z,42.1
2023-11-26T17:16:51.870Z,42.1
2023-11-26T17:17:39.564Z,42.0
2023-11-26T17:18:27.050Z,42.0
2023-11-26T17:19:14.482Z,42.0
2023-11-26T17:20:01.811Z,42.0
2023-11-26T17:20:49.248Z,41.9
2023-11-26T17:21:36.669Z,41.9
2023-11-26T17:22:23.990Z,41.9
2023-11-26T17:23:11.305Z,41.9
2023-11-26T17:23:58.617Z,41.9
2023-11-26T17:24:45.975Z,41.8
2023-11-26T17:25:33.346Z,41.8
2023-11-26T17:26:20.831Z,41.9
2023-11-26T17:27:08.201Z,41.9
2023-11-26T17:27:55.556Z,41.9
2023-11-26T17:28:42.903Z,41.9
2023-11-26T17:29:30.218Z,41.8
2023-11-26T17:30:17.562Z,41.8
2023-11-26T17:31:05.062Z,41.8
2023-11-26T17:31:52.425Z,41.8
2023-11-26T17:32:39.824Z,41.8
2023-11-26T17:33:27.253Z,41.8
2023-11-26T17:34:14.672Z,41.8
2023-11-26T17:35:02.042Z,41.7
2023-11-26T17:35:49.369Z,41.7
2023-11-26T17:36:36.721Z,41.7
2023-11-26T17:37:24.054Z,41.8
2023-11-26T17:38:11.413Z,41.7
2023-11-26T17:38:58.754Z,41.7
2023-11-26T17:39:46.107Z,41.8
2023-11-26T17:40:33.474Z,41.8
2023-11-26T17:41:21.228Z,41.7
2023-11-26T17:42:08.625Z,41.7
2023-11-26T17:42:55.969Z,41.7
2023-11-26T17:43:43.321Z,42.2
2023-11-26T17:44:30.690Z,41.7
2023-11-26T17:45:18.003Z,41.7
2023-11-26T17:46:05.409Z,41.7
2023-11-26T17:46:52.872Z,41.8
2023-11-26T17:47:40.272Z,41.7
2023-11-26T17:48:27.615Z,41.8
2023-11-26T17:49:14.906Z,41.8
2023-11-26T17:50:02.246Z,41.8
2023-11-26T17:50:49.706Z,41.7
2023-11-26T17:51:37.055Z,41.7
2023-11-26T17:52:24.387Z,41.7
2023-11-26T17:53:11.978Z,41.7
2023-11-26T17:54:00.032Z,41.7
2023-11-26T17:54:47.409Z,41.7
2023-11-26T17:55:34.763Z,41.7
2023-11-26T17:56:22.067Z,41.7
2023-11-26T17:57:09.414Z,41.7
2023-11-26T17:57:56.793Z,41.7
2023-11-26T17:58:44.217Z,41.7
2023-11-26T17:59:31.589Z,41.7
2023-11-26T18:00:18.913Z,41.7
2023-11-26T18:01:06.359Z,42.3
2023-11-26T18:01:53.890Z,41.7
2023-11-26T18:02:41.337Z,41.7
2023-11-26T18:03:28.809Z,41.7
2023-11-26T18:04:16.309Z,41.7
2023-11-26T18:05:03.682Z,41.7
2023-11-26T18:05:51.012Z,41.7
2023-11-26T18:06:38.341Z,41.7
2023-11-26T18:07:25.683Z,41.7
2023-11-26T18:08:13.001Z,41.7
2023-11-26T18:09:00.350Z,41.7
2023-11-26T18:09:47.763Z,41.7
2023-11-26T18:10:35.182Z,41.7
2023-11-26T18:11:22.615Z,41.7
2023-11-26T18:12:10.033Z,41.7
2023-11-26T18:12:57.634Z,41.7
2023-11-26T18:13:45.217Z,41.7
2023-11-26T18:14:32.800Z,41.7
2023-11-26T18:15:20.352Z,41.7
2023-11-26T18:16:07.860Z,41.6
2023-11-26T18:16:55.642Z,41.7
2023-11-26T18:17:43.175Z,41.7
2023-11-26T18:18:30.644Z,41.7
2023-11-26T18:19:18.075Z,41.7
2023-11-26T18:20:05.496Z,41.7
2023-11-26T18:20:52.905Z,41.6
2023-11-26T18:21:40.383Z,41.7
2023-11-26T18:22:27.809Z,41.6
2023-11-26T18:23:15.229Z,41.7
2023-11-26T18:24:02.723Z,41.7
2023-11-26T18:24:50.210Z,41.7
2023-11-26T18:25:37.624Z,41.7
2023-11-26T18:26:25.052Z,41.7
2023-11-26T18:27:12.539Z,41.7
2023-11-26T18:28:00.034Z,41.7
2023-11-26T18:28:47.485Z,41.7
2023-11-26T18:29:34.944Z,41.7
2023-11-26T18:30:22.374Z,41.7
2023-11-26T18:31:09.911Z,41.7
2023-11-26T18:31:57.431Z,41.7
2023-11-26T18:32:45.173Z,41.7
2023-11-26T18:33:32.671Z,41.7
2023-11-26T18:34:20.086Z,41.7
2023-11-26T18:35:07.523Z,41.7
2023-11-26T18:35:54.989Z,41.7
2023-11-26T18:36:42.474Z,41.7
2023-11-26T18:37:29.905Z,41.7
2023-11-26T18:38:17.352Z,41.7
2023-11-26T18:39:04.805Z,41.7
2023-11-26T18:39:52.305Z,41.8
2023-11-26T18:40:39.745Z,41.8
2023-11-26T18:41:27.182Z,41.8
2023-11-26T18:42:14.588Z,41.8
2023-11-26T18:43:02.056Z,41.8
2023-11-26T18:43:49.515Z,41.8
2023-11-26T18:44:36.945Z,41.8
2023-11-26T18:45:24.387Z,41.8
2023-11-26T18:46:11.846Z,41.8
2023-11-26T18:46:59.374Z,41.8
2023-11-26T18:47:46.929Z,41.7
2023-11-26T18:48:34.474Z,41.8
2023-11-26T18:49:21.955Z,41.7
2023-11-26T18:50:09.403Z,41.8
2023-11-26T18:50:56.838Z,41.8
2023-11-26T18:51:44.303Z,41.8
2023-11-26T18:52:31.803Z,41.8
2023-11-26T18:53:19.248Z,41.8
2023-11-26T18:54:06.684Z,41.7
2023-11-26T18:54:54.213Z,41.7
2023-11-26T18:55:41.682Z,41.7
2023-11-26T18:56:29.131Z,41.8
2023-11-26T18:57:16.553Z,41.7
2023-11-26T18:58:04.069Z,41.7
2023-11-26T18:58:51.521Z,41.6
2023-11-26T18:59:39.011Z,41.6
2023-11-26T19:00:26.525Z,41.7
2023-11-26T19:01:14.030Z,41.7
2023-11-26T19:02:01.656Z,41.7
2023-11-26T19:02:49.225Z,41.7
2023-11-26T19:03:36.705Z,41.7
2023-11-26T19:04:24.506Z,41.7
2023-11-26T19:05:11.972Z,41.7
2023-11-26T19:05:59.417Z,41.7
2023-11-26T19:06:46.977Z,41.7
2023-11-26T19:07:34.391Z,41.6
2023-11-26T19:08:21.819Z,41.6
2023-11-26T19:09:09.232Z,41.6
2023-11-26T19:09:56.692Z,41.6
2023-11-26T19:10:44.122Z,41.6
2023-11-26T19:11:31.601Z,41.6
2023-11-26T19:12:19.020Z,41.6
2023-11-26T19:13:06.534Z,41.6
2023-11-26T19:13:53.995Z,41.6
2023-11-26T19:14:41.398Z,41.6
2023-11-26T19:15:28.817Z,41.6
2023-11-26T19:16:17.904Z,41.6
2023-11-26T19:17:07.613Z,41.6
2023-11-26T19:17:55.123Z,41.6
2023-11-26T19:18:42.600Z,41.6
2023-11-26T19:19:30.098Z,41.7
2023-11-26T19:20:17.522Z,41.6
2023-11-26T19:21:05.084Z,41.7
2023-11-26T19:21:52.603Z,41.6
2023-11-26T19:22:40.170Z,41.6
2023-11-26T19:23:29.741Z,41.6
2023-11-26T19:24:17.271Z,41.6
2023-11-26T19:25:04.764Z,41.6
2023-11-26T19:25:52.252Z,41.5
2023-11-26T19:26:39.717Z,41.5
2023-11-26T19:27:28.570Z,41.5
2023-11-26T19:28:19.050Z,41.5
2023-11-26T19:29:06.501Z,41.5
2023-11-26T19:29:53.918Z,41.5
2023-11-26T19:30:41.359Z,41.5
2023-11-26T19:31:28.804Z,41.5
2023-11-26T19:32:16.217Z,41.4
2023-11-26T19:33:05.034Z,41.4
2023-11-26T19:33:53.581Z,41.4
2023-11-26T19:34:41.120Z,41.4
2023-11-26T19:35:28.861Z,41.4
2023-11-26T19:36:16.285Z,41.4
2023-11-26T19:37:03.720Z,41.4
2023-11-26T19:37:51.142Z,41.4
2023-11-26T19:38:38.576Z,41.4
2023-11-26T19:39:25.986Z,41.4
2023-11-26T19:40:13.512Z,41.9
2023-11-26T19:41:00.948Z,41.4
2023-11-26T19:41:48.398Z,41.3
2023-11-26T19:42:35.891Z,41.3
2023-11-26T19:43:23.362Z,41.3
2023-11-26T19:44:10.779Z,41.3
2023-11-26T19:44:58.202Z,41.3
2023-11-26T19:45:45.694Z,41.3
2023-11-26T19:46:33.366Z,41.3
2023-11-26T19:47:20.854Z,41.2
2023-11-26T19:48:08.349Z,41.2
2023-11-26T19:48:55.937Z,41.2
2023-11-26T19:49:43.404Z,41.2
2023-11-26T19:50:31.144Z,41.2
2023-11-26T19:51:19.356Z,41.2
2023-11-26T19:52:07.171Z,41.2
2023-11-26T19:52:54.585Z,41.2
2023-11-26T19:53:42.005Z,41.2
2023-11-26T19:54:29.419Z,41.2
2023-11-26T19:55:16.882Z,41.2
2023-11-26T19:56:04.356Z,41.2
2023-11-26T19:56:51.773Z,41.1
2023-11-26T19:57:39.432Z,41.2
2023-11-26T19:58:27.089Z,41.2
2023-11-26T19:59:14.501Z,41.2
2023-11-26T20:00:01.950Z,41.1
2023-11-26T20:00:49.399Z,41.1
2023-11-26T20:01:36.929Z,41.1
2023-11-26T20:02:24.521Z,41.1
2023-11-26T20:03:12.037Z,41.1
2023-11-26T20:03:59.665Z,41.1
2023-11-26T20:04:47.200Z,41.1
2023-11-26T20:05:34.630Z,41.1
2023-11-26T20:06:22.076Z,41.1
2023-11-26T20:07:09.592Z,41.1
2023-11-26T20:07:57.050Z,41.1
2023-11-26T20:08:44.621Z,41.1
2023-11-26T20:09:32.108Z,41.1
2023-11-26T20:10:19.520Z,41.1
2023-11-26T20:11:06.972Z,41.1
2023-11-26T20:11:54.436Z,41.1
2023-11-26T20:12:41.909Z,41.1
2023-11-26T20:13:29.390Z,41.1
2023-11-26T20:14:16.951Z,41.1
2023-11-26T20:15:04.367Z,41.1
2023-11-26T20:15:51.825Z,41.0
2023-11-26T20:16:39.308Z,41.1
2023-11-26T20:17:26.781Z,41.1
2023-11-26T20:18:14.287Z,41.1
2023-11-26T20:19:01.889Z,41.1
2023-11-26T20:19:49.351Z,41.1
2023-11-26T20:20:36.896Z,41.1
2023-11-26T20:21:24.333Z,41.1
2023-11-26T20:22:11.854Z,41.1
2023-11-26T20:22:59.294Z,41.1
2023-11-26T20:23:46.710Z,41.1
2023-11-26T20:24:37.285Z,41.0
2023-11-26T20:25:25.207Z,41.1
2023-11-26T20:26:12.668Z,41.0
2023-11-26T20:27:00.104Z,41.1
2023-11-26T20:27:47.572Z,41.0
2023-11-26T20:28:35.041Z,41.1
2023-11-26T20:29:22.485Z,41.1
2023-11-26T20:30:09.953Z,41.1
2023-11-26T20:31:08.106Z,41.1
2023-11-26T20:31:54.798Z,41.0
2023-11-26T20:32:42.294Z,41.1
2023-11-26T20:33:29.832Z,41.1
2023-11-26T20:34:17.355Z,41.0
2023-11-26T20:35:04.797Z,41.1
2023-11-26T20:35:52.219Z,41.0
2023-11-26T20:36:39.725Z,41.0
2023-11-26T20:37:27.159Z,41.0
2023-11-26T20:38:14.624Z,41.0
2023-11-26T20:39:02.065Z,41.0
2023-11-26T20:39:49.476Z,41.0
2023-11-26T20:40:36.931Z,41.0
2023-11-26T20:41:24.360Z,41.1
2023-11-26T20:42:11.798Z,41.0
2023-11-26T20:42:59.285Z,41.0
2023-11-26T20:43:46.738Z,41.0
2023-11-26T20:44:34.155Z,41.0
2023-11-26T20:45:21.590Z,41.1
2023-11-26T20:46:09.229Z,41.0
2023-11-26T20:46:58.314Z,41.0
2023-11-26T20:47:46.576Z,41.0
2023-11-26T20:48:34.054Z,41.0
2023-11-26T20:49:21.515Z,41.1
2023-11-26T20:50:08.972Z,41.0
2023-11-26T20:50:56.493Z,41.0
2023-11-26T20:51:43.962Z,41.0
2023-11-26T20:52:31.367Z,41.0
2023-11-26T20:53:18.793Z,41.0
2023-11-26T20:54:06.217Z,41.0
2023-11-26T20:54:53.684Z,41.0
2023-11-26T20:55:41.171Z,41.0
2023-11-26T20:56:28.623Z,41.0
2023-11-26T20:57:16.102Z,41.0
2023-11-26T20:58:03.544Z,41.1
2023-11-26T20:58:50.946Z,41.1
2023-11-26T20:59:38.357Z,41.1
2023-11-26T21:00:25.776Z,41.0
2023-11-26T21:01:13.252Z,41.0
2023-11-26T21:02:00.819Z,41.0
2023-11-26T21:02:48.531Z,41.0
2023-11-26T21:03:36.146Z,41.0
2023-11-26T21:04:23.684Z,41.0
2023-11-26T21:05:11.157Z,41.0
2023-11-26T21:05:58.574Z,41.0
2023-11-26T21:06:46.014Z,41.1
2023-11-26T21:07:33.452Z,41.1
2023-11-26T21:08:20.873Z,41.0
2023-11-26T21:09:08.295Z,41.0
2023-11-26T21:09:55.764Z,41.0
2023-11-26T21:10:43.199Z,41.0
2023-11-26T21:11:30.641Z,41.1
2023-11-26T21:12:18.066Z,41.0
2023-11-26T21:13:05.477Z,41.0
2023-11-26T21:13:52.904Z,41.0
2023-11-26T21:14:40.324Z,41.1
2023-11-26T21:15:27.771Z,41.0
2023-11-26T21:16:15.324Z,41.0
2023-11-26T21:17:02.862Z,41.0
2023-11-26T21:17:50.362Z,41.0
2023-11-26T21:18:38.144Z,41.1
2023-11-26T21:19:25.572Z,41.0
2023-11-26T21:20:12.987Z,41.0
2023-11-26T21:21:00.429Z,41.0
2023-11-26T21:21:47.882Z,41.0
2023-11-26T21:22:35.308Z,41.1
2023-11-26T21:23:22.760Z,41.0
2023-11-26T21:24:11.594Z,41.0
2023-11-26T21:24:59.298Z,41.0
2023-11-26T21:25:46.734Z,41.1
2023-11-26T21:26:34.165Z,41.0
2023-11-26T21:27:21.663Z,41.0
2023-11-26T21:28:09.192Z,41.0
2023-11-26T21:28:56.760Z,41.0
2023-11-26T21:29:44.182Z,41.0
2023-11-26T21:30:31.591Z,41.0
2023-11-26T21:31:19.013Z,41.0
2023-11-26T21:32:06.447Z,41.0
2023-11-26T21:32:53.889Z,41.0
2023-11-26T21:33:41.400Z,40.9
2023-11-26T21:34:28.921Z,40.9
2023-11-26T21:35:16.399Z,41.0
2023-11-26T21:36:03.837Z,41.0
2023-11-26T21:36:51.363Z,41.0
2023-11-26T21:37:38.870Z,40.9
2023-11-26T21:38:28.654Z,40.9
2023-11-26T21:39:16.254Z,40.9
2023-11-26T21:40:03.694Z,41.0
2023-11-26T21:40:57.338Z,40.9
2023-11-26T21:41:48.510Z,40.9
2023-11-26T21:42:35.988Z,40.9
2023-11-26T21:43:23.477Z,40.9
2023-11-26T21:44:10.918Z,40.9
2023-11-26T21:44:58.349Z,40.9
2023-11-26T21:45:45.775Z,40.9
2023-11-26T21:46:39.145Z,40.9
2023-11-26T21:47:30.660Z,40.9
2023-11-26T21:48:18.128Z,40.9
2023-11-26T21:49:05.679Z,40.9
2023-11-26T21:49:53.251Z,40.9
2023-11-26T21:50:40.687Z,40.9
2023-11-26T21:51:28.129Z,40.9
2023-11-26T21:52:15.565Z,40.9
2023-11-26T21:53:03.028Z,40.9
2023-11-26T21:53:50.437Z,40.9
2023-11-26T21:54:37.889Z,40.9
2023-11-26T21:55:25.315Z,40.9
2023-11-26T21:56:12.740Z,40.8
2023-11-26T21:57:00.241Z,40.9
2023-11-26T21:57:47.666Z,40.9
2023-11-26T21:58:35.183Z,40.9
2023-11-26T21:59:22.591Z,40.9
2023-11-26T22:00:10.046Z,40.8
2023-11-26T22:00:57.536Z,40.8
2023-11-26T22:01:45.137Z,40.8
2023-11-26T22:02:32.704Z,40.8
2023-11-26T22:03:20.432Z,40.8
2023-11-26T22:04:07.912Z,40.8
2023-11-26T22:04:55.408Z,40.8
2023-11-26T22:05:42.813Z,40.8
2023-11-26T22:06:30.266Z,40.8
2023-11-26T22:07:17.762Z,40.8
2023-11-26T22:08:05.263Z,40.8
2023-11-26T22:08:52.710Z,40.8
2023-11-26T22:09:40.144Z,40.8
2023-11-26T22:10:27.567Z,40.8
2023-11-26T22:11:14.996Z,40.8
2023-11-26T22:12:02.449Z,40.8
2023-11-26T22:12:49.900Z,41.4
2023-11-26T22:13:37.342Z,40.8
2023-11-26T22:14:24.775Z,40.8
2023-11-26T22:15:12.201Z,40.8
2023-11-26T22:15:59.628Z,40.8
2023-11-26T22:16:47.119Z,40.8
2023-11-26T22:17:34.610Z,40.8
2023-11-26T22:18:22.078Z,40.8
2023-11-26T22:19:09.539Z,40.8
2023-11-26T22:19:56.972Z,40.8
2023-11-26T22:20:44.380Z,40.8
2023-11-26T22:21:31.841Z,40.7
2023-11-26T22:22:19.264Z,40.8
2023-11-26T22:23:06.720Z,40.8
2023-11-26T22:23:54.150Z,40.7
2023-11-26T22:24:41.640Z,40.8
2023-11-26T22:25:29.083Z,40.8
2023-11-26T22:26:16.527Z,40.7
2023-11-26T22:27:04.055Z,40.8
2023-11-26T22:27:51.538Z,40.7
2023-11-26T22:28:38.993Z,40.7
2023-11-26T22:29:26.415Z,40.7
2023-11-26T22:30:13.857Z,40.7
2023-11-26T22:31:01.466Z,40.7
2023-11-26T22:31:49.107Z,40.7
2023-11-26T22:32:36.802Z,40.7
2023-11-26T22:33:24.263Z,40.7
2023-11-26T22:34:11.743Z,40.7
2023-11-26T22:34:59.180Z,40.7
2023-11-26T22:35:46.687Z,40.6
2023-11-26T22:36:34.132Z,40.6
2023-11-26T22:37:21.581Z,40.6
2023-11-26T22:38:10.344Z,40.6
2023-11-26T22:38:57.823Z,40.6
2023-11-26T22:39:45.272Z,40.6
2023-11-26T22:40:32.705Z,40.6
2023-11-26T22:41:20.151Z,40.6
2023-11-26T22:42:07.582Z,40.6
2023-11-26T22:42:55.169Z,40.7
2023-11-26T22:43:42.788Z,40.6
2023-11-26T22:44:30.242Z,40.6
2023-11-26T22:45:17.672Z,40.6
2023-11-26T22:46:05.159Z,40.6
2023-11-26T22:46:52.746Z,40.6
2023-11-26T22:47:40.281Z,40.6
2023-11-26T22:48:27.741Z,40.6
2023-11-26T22:49:15.270Z,40.6
2023-11-26T22:50:02.752Z,40.6
2023-11-26T22:50:52.805Z,40.6
2023-11-26T22:51:40.957Z,40.6
2023-11-26T22:52:28.388Z,40.6
2023-11-26T22:53:15.800Z,40.6
2023-11-26T22:54:03.218Z,40.8
2023-11-26T22:54:50.666Z,40.6
2023-11-26T22:55:38.150Z,40.6
2023-11-26T22:56:25.936Z,40.6
2023-11-26T22:57:13.539Z,40.6
2023-11-26T22:58:00.964Z,40.6
2023-11-26T22:58:48.409Z,40.6
2023-11-26T22:59:35.817Z,40.6
2023-11-26T23:00:23.241Z,40.6
2023-11-26T23:01:10.760Z,40.6
2023-11-26T23:01:58.396Z,40.6
2023-11-26T23:02:45.985Z,40.6
2023-11-26T23:03:33.595Z,40.6
2023-11-26T23:04:21.154Z,40.6
2023-11-26T23:05:08.575Z,40.6
2023-11-26T23:05:56.022Z,40.6
2023-11-26T23:06:43.452Z,40.6
2023-11-26T23:07:30.896Z,40.6
2023-11-26T23:08:18.344Z,40.6
2023-11-26T23:09:05.766Z,40.6
2023-11-26T23:09:53.188Z,41.1
2023-11-26T23:10:40.619Z,40.6
2023-11-26T23:11:28.055Z,40.6
2023-11-26T23:12:15.476Z,40.6
2023-11-26T23:13:02.938Z,40.6
2023-11-26T23:13:50.373Z,40.6
2023-11-26T23:14:37.825Z,40.6
2023-11-26T23:15:25.317Z,40.6
2023-11-26T23:16:12.772Z,40.6
2023-11-26T23:17:00.291Z,40.6
2023-11-26T23:17:47.846Z,40.6
2023-11-26T23:18:37.655Z,40.6
2023-11-26T23:19:25.424Z,40.6
2023-11-26T23:20:12.864Z,40.6
2023-11-26T23:21:00.278Z,40.6
2023-11-26T23:21:47.742Z,40.6
2023-11-26T23:22:35.162Z,40.6
2023-11-26T23:23:34.089Z,40.6
2023-11-26T23:24:19.968Z,40.6
2023-11-26T23:25:07.426Z,40.6
2023-11-26T23:25:54.911Z,40.6
2023-11-26T23:26:42.448Z,40.6
2023-11-26T23:27:29.865Z,40.6
2023-11-26T23:28:17.931Z,40.6
2023-11-26T23:29:05.417Z,40.6
2023-11-26T23:29:52.846Z,40.6
2023-11-26T23:30:40.296Z,40.6
2023-11-26T23:31:27.783Z,40.6
2023-11-26T23:32:15.226Z,40.6
2023-11-26T23:33:02.761Z,40.6
2023-11-26T23:33:50.700Z,40.6
2023-11-26T23:34:38.285Z,40.6
2023-11-26T23:35:25.716Z,40.6
2023-11-26T23:36:13.165Z,40.6
2023-11-26T23:37:00.641Z,40.6
2023-11-26T23:37:48.105Z,40.5
2023-11-26T23:38:35.538Z,40.6
2023-11-26T23:39:22.988Z,40.6
2023-11-26T23:40:10.399Z,40.6
2023-11-26T23:40:57.844Z,40.6
2023-11-26T23:41:45.281Z,40.6
2023-11-26T23:42:32.728Z,40.6
2023-11-26T23:43:20.208Z,40.6
2023-11-26T23:44:07.641Z,40.6
2023-11-26T23:44:55.084Z,40.6
2023-11-26T23:45:42.632Z,40.6
2023-11-26T23:46:30.223Z,40.6
2023-11-26T23:47:17.684Z,40.6
2023-11-26T23:48:05.157Z,40.6
2023-11-26T23:48:52.631Z,40.6
2023-11-26T23:49:40.060Z,40.6
2023-11-26T23:50:27.493Z,40.6
2023-11-26T23:51:14.923Z,40.5
2023-11-26T23:52:02.451Z,40.5
2023-11-26T23:52:49.925Z,40.5
2023-11-26T23:53:37.369Z,40.6
2023-11-26T23:54:24.785Z,40.6
2023-11-26T23:55:12.210Z,40.6
2023-11-26T23:55:59.651Z,40.6
2023-11-26T23:56:47.096Z,41.2
2023-11-26T23:57:34.550Z,40.6
2023-11-26T23:58:22.097Z,40.6
2023-11-26T23:59:09.617Z,40.6
2023-11-26T23:59:57.114Z,40.6
